Santa Coloma de Cervello, Spain
Current Conditions -  °F | °C
As of 4:00 AM on Sunday 21 Dec 2014 (Local Time) from LEBL Reporting Station
Clear Clear  
Wind Chill: 39°   Ceiling: Unl
Heat Index: 46°   Visibility: 6mi
Dew Point: 41°   Wind: 18mph
Humidity: 81%   Direction: 330°NNW
Pressure: 30.42"   Gusts: NA
Location:  41.37°N, 2.01°E
Report Text: LEBL 210300Z 33016KT CAVOK 08/05 Q1030 NOSIG
Loading
Personal Weather Stations






























Interactive Weather Map New forecast layout! Learn more

10-Day Weather Forecast

Advertisements
Track Severe Weather on mobile